sensor_id;sensor_type;location;lat;lon;timestamp;pressure;altitude;pressure_sealevel;temperature;humidity
58967;BME280;44744;51.894;5.080;2023-07-08T00:00:26;101798.55;;;22.49;42.31
58967;BME280;44744;51.894;5.080;2023-07-08T00:01:26;101797.92;;;22.48;42.38
58967;BME280;44744;51.894;5.080;2023-07-08T00:02:26;101798.33;;;22.46;42.39
58967;BME280;44744;51.894;5.080;2023-07-08T00:03:27;101795.98;;;22.44;42.46
58967;BME280;44744;51.894;5.080;2023-07-08T00:04:27;101794.42;;;22.43;42.58
58967;BME280;44744;51.894;5.080;2023-07-08T00:05:27;101792.11;;;22.43;42.59
58967;BME280;44744;51.894;5.080;2023-07-08T00:06:28;101789.95;;;22.41;42.84
58967;BME280;44744;51.894;5.080;2023-07-08T00:07:28;101787.20;;;22.37;42.71
58967;BME280;44744;51.894;5.080;2023-07-08T00:08:29;101785.51;;;22.34;42.83
58967;BME280;44744;51.894;5.080;2023-07-08T00:09:39;101784.77;;;22.32;42.81
58967;BME280;44744;51.894;5.080;2023-07-08T00:10:40;101784.63;;;22.29;43.02
58967;BME280;44744;51.894;5.080;2023-07-08T00:11:40;101787.90;;;22.27;42.94
58967;BME280;44744;51.894;5.080;2023-07-08T00:12:42;101783.83;;;22.26;43.06
58967;BME280;44744;51.894;5.080;2023-07-08T00:13:43;101783.29;;;22.26;43.01
58967;BME280;44744;51.894;5.080;2023-07-08T00:14:44;101780.19;;;22.27;42.93
58967;BME280;44744;51.894;5.080;2023-07-08T00:15:44;101779.22;;;22.26;43.07
58967;BME280;44744;51.894;5.080;2023-07-08T00:16:45;101776.76;;;22.21;43.09
58967;BME280;44744;51.894;5.080;2023-07-08T00:17:45;101775.74;;;22.18;43.09
58967;BME280;44744;51.894;5.080;2023-07-08T00:18:46;101778.16;;;22.17;43.11
58967;BME280;44744;51.894;5.080;2023-07-08T00:19:49;101775.34;;;22.16;43.31
58967;BME280;44744;51.894;5.080;2023-07-08T00:20:50;101775.25;;;22.13;43.30
58967;BME280;44744;51.894;5.080;2023-07-08T00:21:50;101775.08;;;22.09;43.44
58967;BME280;44744;51.894;5.080;2023-07-08T00:22:51;101775.04;;;22.08;43.35
58967;BME280;44744;51.894;5.080;2023-07-08T00:23:51;101770.68;;;22.06;43.39
58967;BME280;44744;51.894;5.080;2023-07-08T00:24:55;101770.64;;;22.05;43.63
58967;BME280;44744;51.894;5.080;2023-07-08T00:25:55;101765.83;;;22.02;43.44
58967;BME280;44744;51.894;5.080;2023-07-08T00:26:55;101766.32;;;22.01;43.51
58967;BME280;44744;51.894;5.080;2023-07-08T00:27:56;101764.49;;;22.01;43.73
58967;BME280;44744;51.894;5.080;2023-07-08T00:28:56;101764.30;;;21.99;43.67
58967;BME280;44744;51.894;5.080;2023-07-08T00:29:57;101764.25;;;21.95;43.65
58967;BME280;44744;51.894;5.080;2023-07-08T00:30:57;101763.81;;;21.92;43.89
58967;BME280;44744;51.894;5.080;2023-07-08T00:31:57;101765.88;;;21.89;43.81
58967;BME280;44744;51.894;5.080;2023-07-08T00:32:58;101765.70;;;21.87;43.85
58967;BME280;44744;51.894;5.080;2023-07-08T00:33:59;101765.29;;;21.86;43.79
58967;BME280;44744;51.894;5.080;2023-07-08T00:34:59;101764.61;;;21.85;43.95
58967;BME280;44744;51.894;5.080;2023-07-08T00:35:59;101763.98;;;21.84;43.88
58967;BME280;44744;51.894;5.080;2023-07-08T00:37:01;101764.12;;;21.85;43.86
58967;BME280;44744;51.894;5.080;2023-07-08T00:38:14;101764.13;;;21.85;44.03
58967;BME280;44744;51.894;5.080;2023-07-08T00:39:14;101763.63;;;21.82;43.97
58967;BME280;44744;51.894;5.080;2023-07-08T00:40:19;101765.50;;;21.79;43.91
58967;BME280;44744;51.894;5.080;2023-07-08T00:41:36;101765.08;;;21.76;44.13
58967;BME280;44744;51.894;5.080;2023-07-08T00:42:38;101764.29;;;21.70;44.02
58967;BME280;44744;51.894;5.080;2023-07-08T00:43:58;101767.50;;;21.69;44.21
58967;BME280;44744;51.894;5.080;2023-07-08T00:44:58;101765.16;;;21.67;44.19
58967;BME280;44744;51.894;5.080;2023-07-08T00:46:16;101769.34;;;21.66;44.30
58967;BME280;44744;51.894;5.080;2023-07-08T00:47:24;101766.85;;;21.68;44.11
58967;BME280;44744;51.894;5.080;2023-07-08T00:48:33;101771.21;;;21.67;44.26
58967;BME280;44744;51.894;5.080;2023-07-08T00:49:40;101764.27;;;21.67;44.30
58967;BME280;44744;51.894;5.080;2023-07-08T00:50:42;101761.98;;;21.66;44.34
58967;BME280;44744;51.894;5.080;2023-07-08T00:51:42;101764.23;;;21.67;44.35
58967;BME280;44744;51.894;5.080;2023-07-08T00:52:44;101760.52;;;21.66;44.23
58967;BME280;44744;51.894;5.080;2023-07-08T00:53:44;101757.14;;;21.66;44.18
58967;BME280;44744;51.894;5.080;2023-07-08T00:54:45;101757.46;;;21.62;44.21
58967;BME280;44744;51.894;5.080;2023-07-08T00:55:46;101755.63;;;21.62;44.21
58967;BME280;44744;51.894;5.080;2023-07-08T00:56:52;101757.17;;;21.63;44.23
58967;BME280;44744;51.894;5.080;2023-07-08T00:57:53;101758.99;;;21.63;44.35
58967;BME280;44744;51.894;5.080;2023-07-08T00:59:04;101754.76;;;21.62;44.28
58967;BME280;44744;51.894;5.080;2023-07-08T01:00:09;101761.40;;;21.62;44.28
58967;BME280;44744;51.894;5.080;2023-07-08T01:01:10;101760.09;;;21.61;44.32
58967;BME280;44744;51.894;5.080;2023-07-08T01:02:12;101757.51;;;21.59;44.19
58967;BME280;44744;51.894;5.080;2023-07-08T01:03:14;101758.52;;;21.58;44.41
58967;BME280;44744;51.894;5.080;2023-07-08T01:04:22;101755.45;;;21.56;44.26
58967;BME280;44744;51.894;5.080;2023-07-08T01:05:27;101754.15;;;21.54;44.39
58967;BME280;44744;51.894;5.080;2023-07-08T01:06:34;101754.23;;;21.54;44.51
58967;BME280;44744;51.894;5.080;2023-07-08T01:07:36;101752.64;;;21.53;44.35
58967;BME280;44744;51.894;5.080;2023-07-08T01:08:38;101753.08;;;21.55;44.53
58967;BME280;44744;51.894;5.080;2023-07-08T01:09:45;101749.56;;;21.54;44.42
58967;BME280;44744;51.894;5.080;2023-07-08T01:10:49;101746.62;;;21.52;44.55
58967;BME280;44744;51.894;5.080;2023-07-08T01:11:54;101741.39;;;21.48;44.54
58967;BME280;44744;51.894;5.080;2023-07-08T01:12:58;101741.16;;;21.46;44.64
58967;BME280;44744;51.894;5.080;2023-07-08T01:14:00;101739.79;;;21.43;44.66
58967;BME280;44744;51.894;5.080;2023-07-08T01:15:02;101740.81;;;21.44;44.76
58967;BME280;44744;51.894;5.080;2023-07-08T01:16:03;101743.28;;;21.44;44.77
58967;BME280;44744;51.894;5.080;2023-07-08T01:17:05;101745.42;;;21.45;44.68
58967;BME280;44744;51.894;5.080;2023-07-08T01:18:05;101746.64;;;21.45;44.77
58967;BME280;44744;51.894;5.080;2023-07-08T01:19:11;101749.67;;;21.43;44.75
58967;BME280;44744;51.894;5.080;2023-07-08T01:20:14;101748.76;;;21.42;44.64
58967;BME280;44744;51.894;5.080;2023-07-08T01:22:36;101749.79;;;21.38;44.71
58967;BME280;44744;51.894;5.080;2023-07-08T01:23:38;101745.08;;;21.36;44.93
58967;BME280;44744;51.894;5.080;2023-07-08T01:24:41;101743.77;;;21.37;44.68
58967;BME280;44744;51.894;5.080;2023-07-08T01:25:43;101745.27;;;21.36;44.75
58967;BME280;44744;51.894;5.080;2023-07-08T01:26:45;101740.64;;;21.36;44.86
58967;BME280;44744;51.894;5.080;2023-07-08T01:27:48;101741.36;;;21.36;44.82
58967;BME280;44744;51.894;5.080;2023-07-08T01:28:49;101741.48;;;21.34;44.96
58967;BME280;44744;51.894;5.080;2023-07-08T01:29:49;101739.66;;;21.32;44.94
58967;BME280;44744;51.894;5.080;2023-07-08T01:30:50;101738.69;;;21.31;45.05
58967;BME280;44744;51.894;5.080;2023-07-08T01:31:50;101734.45;;;21.30;44.96
58967;BME280;44744;51.894;5.080;2023-07-08T01:32:55;101738.52;;;21.29;45.10
58967;BME280;44744;51.894;5.080;2023-07-08T01:33:57;101741.73;;;21.27;45.05
58967;BME280;44744;51.894;5.080;2023-07-08T01:35:00;101737.48;;;21.24;45.12
58967;BME280;44744;51.894;5.080;2023-07-08T01:36:01;101737.80;;;21.23;45.16
58967;BME280;44744;51.894;5.080;2023-07-08T01:37:06;101740.56;;;21.22;45.08
58967;BME280;44744;51.894;5.080;2023-07-08T01:38:10;101739.95;;;21.21;45.14
58967;BME280;44744;51.894;5.080;2023-07-08T01:39:13;101739.07;;;21.21;45.21
58967;BME280;44744;51.894;5.080;2023-07-08T01:41:21;101738.43;;;21.16;45.30
58967;BME280;44744;51.894;5.080;2023-07-08T01:42:24;101735.25;;;21.15;45.28
58967;BME280;44744;51.894;5.080;2023-07-08T01:43:25;101728.88;;;21.13;45.36
58967;BME280;44744;51.894;5.080;2023-07-08T01:44:38;101729.63;;;21.11;45.39
58967;BME280;44744;51.894;5.080;2023-07-08T01:45:43;101728.72;;;21.07;45.46
58967;BME280;44744;51.894;5.080;2023-07-08T01:46:43;101730.80;;;21.04;45.51
58967;BME280;44744;51.894;5.080;2023-07-08T01:47:56;101734.07;;;21.01;45.54
58967;BME280;44744;51.894;5.080;2023-07-08T01:48:59;101727.16;;;20.98;45.74
58967;BME280;44744;51.894;5.080;2023-07-08T01:50:01;101729.49;;;20.96;45.77
58967;BME280;44744;51.894;5.080;2023-07-08T01:51:04;101728.20;;;20.94;45.77
58967;BME280;44744;51.894;5.080;2023-07-08T01:52:05;101730.39;;;20.91;45.87
58967;BME280;44744;51.894;5.080;2023-07-08T01:53:14;101731.11;;;20.89;45.94
58967;BME280;44744;51.894;5.080;2023-07-08T01:54:15;101730.61;;;20.87;45.63
58967;BME280;44744;51.894;5.080;2023-07-08T01:55:23;101731.59;;;20.86;45.89
58967;BME280;44744;51.894;5.080;2023-07-08T01:56:23;101731.73;;;20.84;46.00
58967;BME280;44744;51.894;5.080;2023-07-08T01:57:24;101729.99;;;20.83;45.85
58967;BME280;44744;51.894;5.080;2023-07-08T01:58:24;101728.38;;;20.84;46.03
58967;BME280;44744;51.894;5.080;2023-07-08T01:59:24;101727.35;;;20.83;46.11
58967;BME280;44744;51.894;5.080;2023-07-08T02:00:25;101725.60;;;20.83;45.99
58967;BME280;44744;51.894;5.080;2023-07-08T02:01:25;101724.16;;;20.82;46.04
58967;BME280;44744;51.894;5.080;2023-07-08T02:02:25;101724.56;;;20.82;46.20
58967;BME280;44744;51.894;5.080;2023-07-08T02:03:27;101719.38;;;20.79;46.29
58967;BME280;44744;51.894;5.080;2023-07-08T02:04:27;101719.29;;;20.78;46.23
58967;BME280;44744;51.894;5.080;2023-07-08T02:05:27;101718.23;;;20.78;46.19
58967;BME280;44744;51.894;5.080;2023-07-08T02:06:27;101713.55;;;20.78;46.23
58967;BME280;44744;51.894;5.080;2023-07-08T02:07:28;101712.30;;;20.78;46.26
58967;BME280;44744;51.894;5.080;2023-07-08T02:08:28;101711.89;;;20.76;46.24
58967;BME280;44744;51.894;5.080;2023-07-08T02:09:28;101708.57;;;20.75;46.39
58967;BME280;44744;51.894;5.080;2023-07-08T02:10:29;101710.23;;;20.75;46.40
58967;BME280;44744;51.894;5.080;2023-07-08T02:11:29;101706.86;;;20.74;46.41
58967;BME280;44744;51.894;5.080;2023-07-08T02:12:29;101708.63;;;20.72;46.39
58967;BME280;44744;51.894;5.080;2023-07-08T02:13:30;101707.29;;;20.71;46.58
58967;BME280;44744;51.894;5.080;2023-07-08T02:14:30;101705.61;;;20.70;46.53
58967;BME280;44744;51.894;5.080;2023-07-08T02:15:30;101706.88;;;20.70;46.54
58967;BME280;44744;51.894;5.080;2023-07-08T02:16:31;101705.14;;;20.69;46.51
58967;BME280;44744;51.894;5.080;2023-07-08T02:17:34;101707.70;;;20.69;46.76
58967;BME280;44744;51.894;5.080;2023-07-08T02:18:34;101703.14;;;20.65;46.64
58967;BME280;44744;51.894;5.080;2023-07-08T02:19:35;101704.82;;;20.64;46.71
58967;BME280;44744;51.894;5.080;2023-07-08T02:20:35;101705.09;;;20.63;46.96
58967;BME280;44744;51.894;5.080;2023-07-08T02:21:35;101701.20;;;20.60;46.97
58967;BME280;44744;51.894;5.080;2023-07-08T02:22:39;101700.26;;;20.58;46.93
58967;BME280;44744;51.894;5.080;2023-07-08T02:23:39;101700.23;;;20.59;46.93
58967;BME280;44744;51.894;5.080;2023-07-08T02:24:39;101696.67;;;20.58;46.87
58967;BME280;44744;51.894;5.080;2023-07-08T02:25:40;101694.16;;;20.58;46.97
58967;BME280;44744;51.894;5.080;2023-07-08T02:26:40;101695.32;;;20.57;47.11
58967;BME280;44744;51.894;5.080;2023-07-08T02:27:40;101696.80;;;20.57;47.07
58967;BME280;44744;51.894;5.080;2023-07-08T02:28:40;101691.84;;;20.56;47.26
58967;BME280;44744;51.894;5.080;2023-07-08T02:29:41;101694.55;;;20.56;47.11
58967;BME280;44744;51.894;5.080;2023-07-08T02:30:41;101692.46;;;20.55;47.11
58967;BME280;44744;51.894;5.080;2023-07-08T02:31:41;101686.92;;;20.55;47.15
58967;BME280;44744;51.894;5.080;2023-07-08T02:32:42;101688.58;;;20.54;47.19
58967;BME280;44744;51.894;5.080;2023-07-08T02:33:42;101688.83;;;20.53;47.24
58967;BME280;44744;51.894;5.080;2023-07-08T02:34:42;101686.31;;;20.51;47.25
58967;BME280;44744;51.894;5.080;2023-07-08T02:35:43;101687.21;;;20.51;47.26
58967;BME280;44744;51.894;5.080;2023-07-08T02:36:43;101684.55;;;20.51;47.36
58967;BME280;44744;51.894;5.080;2023-07-08T02:37:44;101686.80;;;20.50;47.39
58967;BME280;44744;51.894;5.080;2023-07-08T02:38:44;101684.93;;;20.48;47.35
58967;BME280;44744;51.894;5.080;2023-07-08T02:39:44;101680.88;;;20.48;47.29
58967;BME280;44744;51.894;5.080;2023-07-08T02:40:45;101681.64;;;20.47;47.42
58967;BME280;44744;51.894;5.080;2023-07-08T02:41:49;101681.08;;;20.45;47.39
58967;BME280;44744;51.894;5.080;2023-07-08T02:42:49;101683.14;;;20.44;47.58
58967;BME280;44744;51.894;5.080;2023-07-08T02:43:49;101679.15;;;20.42;47.54
58967;BME280;44744;51.894;5.080;2023-07-08T02:44:50;101681.44;;;20.40;47.48
58967;BME280;44744;51.894;5.080;2023-07-08T02:45:50;101681.20;;;20.39;47.60
58967;BME280;44744;51.894;5.080;2023-07-08T02:46:51;101681.33;;;20.37;47.60
58967;BME280;44744;51.894;5.080;2023-07-08T02:47:51;101681.10;;;20.36;47.74
58967;BME280;44744;51.894;5.080;2023-07-08T02:48:51;101679.40;;;20.35;47.92
58967;BME280;44744;51.894;5.080;2023-07-08T02:49:52;101681.45;;;20.32;47.87
58967;BME280;44744;51.894;5.080;2023-07-08T02:51:01;101675.45;;;20.28;47.78
58967;BME280;44744;51.894;5.080;2023-07-08T02:52:02;101677.90;;;20.27;47.86
58967;BME280;44744;51.894;5.080;2023-07-08T02:53:05;101677.95;;;20.24;47.90
58967;BME280;44744;51.894;5.080;2023-07-08T02:54:32;101677.39;;;20.22;48.00
58967;BME280;44744;51.894;5.080;2023-07-08T02:55:32;101674.36;;;20.20;48.08
58967;BME280;44744;51.894;5.080;2023-07-08T02:56:33;101676.69;;;20.18;48.19
58967;BME280;44744;51.894;5.080;2023-07-08T02:57:33;101674.05;;;20.17;48.03
58967;BME280;44744;51.894;5.080;2023-07-08T02:58:33;101673.84;;;20.15;48.08
58967;BME280;44744;51.894;5.080;2023-07-08T02:59:33;101672.75;;;20.13;48.16
58967;BME280;44744;51.894;5.080;2023-07-08T03:00:34;101673.70;;;20.12;48.19
58967;BME280;44744;51.894;5.080;2023-07-08T03:01:35;101674.94;;;20.10;48.25
58967;BME280;44744;51.894;5.080;2023-07-08T03:02:35;101678.63;;;20.09;48.41
58967;BME280;44744;51.894;5.080;2023-07-08T03:03:38;101676.02;;;20.08;48.43
58967;BME280;44744;51.894;5.080;2023-07-08T03:04:39;101680.47;;;20.06;48.35
58967;BME280;44744;51.894;5.080;2023-07-08T03:05:39;101682.76;;;20.05;48.55
58967;BME280;44744;51.894;5.080;2023-07-08T03:06:41;101684.67;;;20.04;48.62
58967;BME280;44744;51.894;5.080;2023-07-08T03:07:42;101687.00;;;20.01;48.51
58967;BME280;44744;51.894;5.080;2023-07-08T03:08:42;101687.33;;;20.00;48.54
58967;BME280;44744;51.894;5.080;2023-07-08T03:09:43;101688.52;;;19.98;48.73
58967;BME280;44744;51.894;5.080;2023-07-08T03:10:48;101689.33;;;19.97;48.55
58967;BME280;44744;51.894;5.080;2023-07-08T03:11:48;101688.58;;;19.95;48.57
58967;BME280;44744;51.894;5.080;2023-07-08T03:12:48;101689.02;;;19.94;48.76
58967;BME280;44744;51.894;5.080;2023-07-08T03:13:49;101690.86;;;19.93;48.76
58967;BME280;44744;51.894;5.080;2023-07-08T03:14:49;101691.39;;;19.94;48.66
58967;BME280;44744;51.894;5.080;2023-07-08T03:15:50;101692.77;;;19.92;48.79
58967;BME280;44744;51.894;5.080;2023-07-08T03:16:50;101694.73;;;19.92;48.88
58967;BME280;44744;51.894;5.080;2023-07-08T03:17:50;101696.02;;;19.92;48.99
58967;BME280;44744;51.894;5.080;2023-07-08T03:18:50;101693.36;;;19.92;48.78
58967;BME280;44744;51.894;5.080;2023-07-08T03:19:51;101694.14;;;19.91;48.90
58967;BME280;44744;51.894;5.080;2023-07-08T03:20:51;101695.80;;;19.90;48.80
58967;BME280;44744;51.894;5.080;2023-07-08T03:21:52;101691.84;;;19.90;48.91
58967;BME280;44744;51.894;5.080;2023-07-08T03:22:52;101692.09;;;19.90;48.87
58967;BME280;44744;51.894;5.080;2023-07-08T03:23:52;101692.96;;;19.90;48.98
58967;BME280;44744;51.894;5.080;2023-07-08T03:24:52;101691.69;;;19.88;49.07
58967;BME280;44744;51.894;5.080;2023-07-08T03:25:53;101692.14;;;19.87;48.90
58967;BME280;44744;51.894;5.080;2023-07-08T03:26:53;101690.94;;;19.86;49.09
58967;BME280;44744;51.894;5.080;2023-07-08T03:27:53;101690.78;;;19.84;49.17
58967;BME280;44744;51.894;5.080;2023-07-08T03:28:56;101688.28;;;19.81;49.26
58967;BME280;44744;51.894;5.080;2023-07-08T03:29:56;101691.08;;;19.80;49.17
58967;BME280;44744;51.894;5.080;2023-07-08T03:30:57;101689.81;;;19.77;49.35
58967;BME280;44744;51.894;5.080;2023-07-08T03:31:57;101690.12;;;19.76;49.44
58967;BME280;44744;51.894;5.080;2023-07-08T03:32:57;101693.02;;;19.75;49.27
58967;BME280;44744;51.894;5.080;2023-07-08T03:33:58;101696.02;;;19.74;49.47
58967;BME280;44744;51.894;5.080;2023-07-08T03:34:58;101695.98;;;19.72;49.25
58967;BME280;44744;51.894;5.080;2023-07-08T03:35:58;101691.61;;;19.70;49.34
58967;BME280;44744;51.894;5.080;2023-07-08T03:36:59;101693.60;;;19.70;49.41
58967;BME280;44744;51.894;5.080;2023-07-08T03:37:59;101694.91;;;19.69;49.49
58967;BME280;44744;51.894;5.080;2023-07-08T03:39:00;101691.59;;;19.69;49.62
58967;BME280;44744;51.894;5.080;2023-07-08T03:40:00;101697.43;;;19.67;49.62
58967;BME280;44744;51.894;5.080;2023-07-08T03:41:00;101696.82;;;19.66;49.49
58967;BME280;44744;51.894;5.080;2023-07-08T03:42:00;101698.24;;;19.64;49.62
58967;BME280;44744;51.894;5.080;2023-07-08T03:43:01;101696.73;;;19.63;49.78
58967;BME280;44744;51.894;5.080;2023-07-08T03:44:01;101694.36;;;19.61;49.89
58967;BME280;44744;51.894;5.080;2023-07-08T03:45:04;101695.67;;;19.60;49.73
58967;BME280;44744;51.894;5.080;2023-07-08T03:46:05;101695.90;;;19.59;49.78
58967;BME280;44744;51.894;5.080;2023-07-08T03:47:05;101697.45;;;19.58;49.76
58967;BME280;44744;51.894;5.080;2023-07-08T03:48:12;101699.52;;;19.57;49.80
58967;BME280;44744;51.894;5.080;2023-07-08T03:49:12;101697.11;;;19.55;50.05
58967;BME280;44744;51.894;5.080;2023-07-08T03:50:49;101698.08;;;19.55;50.15
58967;BME280;44744;51.894;5.080;2023-07-08T03:51:52;101698.08;;;19.50;50.02
58967;BME280;44744;51.894;5.080;2023-07-08T03:52:54;101696.56;;;19.49;49.95
58967;BME280;44744;51.894;5.080;2023-07-08T03:53:55;101697.55;;;19.48;50.26
58967;BME280;44744;51.894;5.080;2023-07-08T03:54:55;101701.05;;;19.46;50.35
58967;BME280;44744;51.894;5.080;2023-07-08T03:55:55;101701.71;;;19.45;50.13
58967;BME280;44744;51.894;5.080;2023-07-08T03:56:56;101702.88;;;19.44;50.45
58967;BME280;44744;51.894;5.080;2023-07-08T03:57:56;101704.09;;;19.42;50.49
58967;BME280;44744;51.894;5.080;2023-07-08T03:58:56;101704.34;;;19.41;50.79
58967;BME280;44744;51.894;5.080;2023-07-08T03:59:57;101703.95;;;19.39;50.55
58967;BME280;44744;51.894;5.080;2023-07-08T04:00:57;101704.04;;;19.38;50.72
58967;BME280;44744;51.894;5.080;2023-07-08T04:01:57;101707.23;;;19.36;50.80
58967;BME280;44744;51.894;5.080;2023-07-08T04:02:57;101703.24;;;19.34;50.77
58967;BME280;44744;51.894;5.080;2023-07-08T04:04:03;101704.44;;;19.33;50.84
58967;BME280;44744;51.894;5.080;2023-07-08T04:05:04;101702.08;;;19.31;50.94
58967;BME280;44744;51.894;5.080;2023-07-08T04:06:04;101708.58;;;19.31;51.10
58967;BME280;44744;51.894;5.080;2023-07-08T04:07:05;101709.44;;;19.29;51.07
58967;BME280;44744;51.894;5.080;2023-07-08T04:08:06;101709.34;;;19.28;51.14
58967;BME280;44744;51.894;5.080;2023-07-08T04:09:06;101707.21;;;19.27;51.07
58967;BME280;44744;51.894;5.080;2023-07-08T04:10:08;101710.41;;;19.28;51.31
58967;BME280;44744;51.894;5.080;2023-07-08T04:11:11;101705.35;;;19.28;51.24
58967;BME280;44744;51.894;5.080;2023-07-08T04:12:12;101706.61;;;19.28;51.15
58967;BME280;44744;51.894;5.080;2023-07-08T04:13:12;101703.61;;;19.27;51.22
58967;BME280;44744;51.894;5.080;2023-07-08T04:14:13;101700.73;;;19.28;51.21
58967;BME280;44744;51.894;5.080;2023-07-08T04:15:13;101696.23;;;19.28;51.38
58967;BME280;44744;51.894;5.080;2023-07-08T04:16:23;101698.36;;;19.28;51.26
58967;BME280;44744;51.894;5.080;2023-07-08T04:17:24;101700.52;;;19.28;51.36
58967;BME280;44744;51.894;5.080;2023-07-08T04:18:25;101702.54;;;19.27;51.59
58967;BME280;44744;51.894;5.080;2023-07-08T04:19:25;101699.52;;;19.27;51.44
58967;BME280;44744;51.894;5.080;2023-07-08T04:20:26;101694.63;;;19.27;51.53
58967;BME280;44744;51.894;5.080;2023-07-08T04:21:26;101698.08;;;19.27;51.66
58967;BME280;44744;51.894;5.080;2023-07-08T04:22:27;101697.64;;;19.26;51.64
58967;BME280;44744;51.894;5.080;2023-07-08T04:23:27;101695.47;;;19.24;51.68
58967;BME280;44744;51.894;5.080;2023-07-08T04:24:28;101693.24;;;19.23;51.75
58967;BME280;44744;51.894;5.080;2023-07-08T04:25:28;101696.98;;;19.23;51.90
58967;BME280;44744;51.894;5.080;2023-07-08T04:26:28;101697.83;;;19.21;51.78
58967;BME280;44744;51.894;5.080;2023-07-08T04:27:29;101696.48;;;19.22;51.98
58967;BME280;44744;51.894;5.080;2023-07-08T04:28:29;101697.91;;;19.22;51.77
58967;BME280;44744;51.894;5.080;2023-07-08T04:29:29;101701.27;;;19.23;51.74
58967;BME280;44744;51.894;5.080;2023-07-08T04:30:30;101698.89;;;19.24;51.87
58967;BME280;44744;51.894;5.080;2023-07-08T04:31:30;101699.41;;;19.24;51.92
58967;BME280;44744;51.894;5.080;2023-07-08T04:32:30;101701.99;;;19.25;52.03
58967;BME280;44744;51.894;5.080;2023-07-08T04:33:30;101701.80;;;19.25;51.94
58967;BME280;44744;51.894;5.080;2023-07-08T04:34:31;101703.23;;;19.25;51.93
58967;BME280;44744;51.894;5.080;2023-07-08T04:35:31;101703.89;;;19.26;52.10
58967;BME280;44744;51.894;5.080;2023-07-08T04:36:32;101699.96;;;19.26;52.22
58967;BME280;44744;51.894;5.080;2023-07-08T04:37:32;101701.77;;;19.25;52.17
58967;BME280;44744;51.894;5.080;2023-07-08T04:44:48;101697.70;;;19.18;52.45
58967;BME280;44744;51.894;5.080;2023-07-08T04:45:51;101698.65;;;19.15;52.39
58967;BME280;44744;51.894;5.080;2023-07-08T04:46:55;101698.25;;;19.16;52.48
58967;BME280;44744;51.894;5.080;2023-07-08T04:47:56;101699.96;;;19.17;52.49
58967;BME280;44744;51.894;5.080;2023-07-08T04:48:56;101700.81;;;19.17;52.75
58967;BME280;44744;51.894;5.080;2023-07-08T04:49:57;101703.82;;;19.20;52.65
58967;BME280;44744;51.894;5.080;2023-07-08T04:50:57;101699.08;;;19.21;52.99
58967;BME280;44744;51.894;5.080;2023-07-08T04:51:57;101701.35;;;19.22;52.80
58967;BME280;44744;51.894;5.080;2023-07-08T04:52:58;101700.79;;;19.22;52.87
58967;BME280;44744;51.894;5.080;2023-07-08T04:53:58;101703.22;;;19.23;52.86
58967;BME280;44744;51.894;5.080;2023-07-08T04:54:59;101700.70;;;19.23;53.09
58967;BME280;44744;51.894;5.080;2023-07-08T04:55:59;101700.45;;;19.24;52.88
58967;BME280;44744;51.894;5.080;2023-07-08T04:56:59;101698.73;;;19.25;52.91
58967;BME280;44744;51.894;5.080;2023-07-08T04:57:59;101701.84;;;19.27;53.02
58967;BME280;44744;51.894;5.080;2023-07-08T04:59:00;101700.38;;;19.27;53.19
58967;BME280;44744;51.894;5.080;2023-07-08T05:00:00;101702.07;;;19.29;53.24
58967;BME280;44744;51.894;5.080;2023-07-08T05:01:00;101700.48;;;19.28;53.12
58967;BME280;44744;51.894;5.080;2023-07-08T05:02:01;101700.37;;;19.30;53.14
58967;BME280;44744;51.894;5.080;2023-07-08T05:03:01;101701.67;;;19.32;53.34
58967;BME280;44744;51.894;5.080;2023-07-08T05:04:03;101702.42;;;19.34;53.27
58967;BME280;44744;51.894;5.080;2023-07-08T05:05:04;101699.79;;;19.35;53.25
58967;BME280;44744;51.894;5.080;2023-07-08T05:06:04;101697.94;;;19.36;53.36
58967;BME280;44744;51.894;5.080;2023-07-08T05:07:04;101697.42;;;19.35;53.22
58967;BME280;44744;51.894;5.080;2023-07-08T05:08:06;101696.63;;;19.37;53.27
58967;BME280;44744;51.894;5.080;2023-07-08T05:09:07;101695.95;;;19.38;53.06
58967;BME280;44744;51.894;5.080;2023-07-08T05:10:07;101694.42;;;19.37;53.22
58967;BME280;44744;51.894;5.080;2023-07-08T05:11:10;101695.92;;;19.39;53.16
58967;BME280;44744;51.894;5.080;2023-07-08T05:12:10;101695.77;;;19.41;53.13
58967;BME280;44744;51.894;5.080;2023-07-08T05:13:10;101698.20;;;19.42;53.22
58967;BME280;44744;51.894;5.080;2023-07-08T05:14:12;101700.39;;;19.43;53.20
58967;BME280;44744;51.894;5.080;2023-07-08T05:15:14;101702.56;;;19.45;53.37
58967;BME280;44744;51.894;5.080;2023-07-08T05:16:15;101705.77;;;19.45;53.30
58967;BME280;44744;51.894;5.080;2023-07-08T05:17:15;101704.48;;;19.46;53.34
58967;BME280;44744;51.894;5.080;2023-07-08T05:18:15;101703.47;;;19.48;53.30
58967;BME280;44744;51.894;5.080;2023-07-08T05:19:15;101704.41;;;19.49;53.42
58967;BME280;44744;51.894;5.080;2023-07-08T05:20:18;101703.45;;;19.50;53.43
58967;BME280;44744;51.894;5.080;2023-07-08T05:21:22;101701.98;;;19.51;53.46
58967;BME280;44744;51.894;5.080;2023-07-08T05:22:40;101703.19;;;19.51;53.44
58967;BME280;44744;51.894;5.080;2023-07-08T05:23:40;101697.14;;;19.51;53.68
58967;BME280;44744;51.894;5.080;2023-07-08T05:24:41;101695.02;;;19.50;53.62
58967;BME280;44744;51.894;5.080;2023-07-08T05:25:41;101697.52;;;19.50;53.53
58967;BME280;44744;51.894;5.080;2023-07-08T05:26:41;101698.33;;;19.52;53.70
58967;BME280;44744;51.894;5.080;2023-07-08T05:27:42;101696.53;;;19.52;53.61
58967;BME280;44744;51.894;5.080;2023-07-08T05:28:42;101698.11;;;19.52;53.70
58967;BME280;44744;51.894;5.080;2023-07-08T05:29:42;101701.84;;;19.52;53.55
58967;BME280;44744;51.894;5.080;2023-07-08T05:30:43;101698.48;;;19.54;53.80
58967;BME280;44744;51.894;5.080;2023-07-08T05:31:43;101700.00;;;19.55;53.81